createdAt,value
2023-03-28T00:00:51.472Z,991.96
2023-03-28T00:01:51.463Z,991.97
2023-03-28T00:02:51.494Z,991.98
2023-03-28T00:03:51.491Z,992.00
2023-03-28T00:04:51.430Z,992.02
2023-03-28T00:05:51.450Z,992.02
2023-03-28T00:06:51.397Z,992.03
2023-03-28T00:07:51.384Z,992.03
2023-03-28T00:08:51.434Z,992.07
2023-03-28T00:09:51.407Z,992.10
2023-03-28T00:10:51.369Z,992.14
2023-03-28T00:11:51.354Z,992.16
2023-03-28T00:12:51.351Z,992.19
2023-03-28T00:13:51.336Z,992.20
2023-03-28T00:14:51.343Z,992.22
2023-03-28T00:15:51.378Z,992.24
2023-03-28T00:16:51.301Z,992.25
2023-03-28T00:17:51.366Z,992.25
2023-03-28T00:18:51.278Z,992.27
2023-03-28T00:19:51.279Z,992.25
2023-03-28T00:20:51.272Z,992.27
2023-03-28T00:21:51.500Z,992.29
2023-03-28T00:22:51.262Z,992.28
2023-03-28T00:23:51.248Z,992.28
2023-03-28T00:24:51.218Z,992.29
2023-03-28T00:25:51.226Z,992.30
2023-03-28T00:26:51.224Z,992.30
2023-03-28T00:27:51.208Z,992.31
2023-03-28T00:28:51.190Z,992.31
2023-03-28T00:29:51.165Z,992.32
2023-03-28T00:30:51.186Z,992.33
2023-03-28T00:31:51.479Z,992.31
2023-03-28T00:32:51.269Z,992.32
2023-03-28T00:33:51.182Z,992.33
2023-03-28T00:34:51.150Z,992.33
2023-03-28T00:35:51.146Z,992.32
2023-03-28T00:36:51.116Z,992.30
2023-03-28T00:37:51.104Z,992.29
2023-03-28T00:38:51.103Z,992.29
2023-03-28T00:39:51.087Z,992.30
2023-03-28T00:40:51.069Z,992.30
2023-03-28T00:41:51.075Z,992.30
2023-03-28T00:42:51.060Z,992.29
2023-03-28T00:43:51.039Z,992.28
2023-03-28T00:44:51.051Z,992.29
2023-03-28T00:46:02.507Z,992.31
2023-03-28T00:46:51.050Z,992.34
2023-03-28T00:47:51.035Z,992.36
2023-03-28T00:48:51.003Z,992.35
2023-03-28T00:49:51.009Z,992.36
2023-03-28T00:50:50.980Z,992.37
2023-03-28T00:51:50.979Z,992.39
2023-03-28T00:52:50.968Z,992.39
2023-03-28T00:53:50.946Z,992.40
2023-03-28T00:54:50.940Z,992.43
2023-03-28T00:55:50.963Z,992.45
2023-03-28T00:56:51.017Z,992.46
2023-03-28T00:57:50.918Z,992.45
2023-03-28T00:58:50.895Z,992.45
2023-03-28T00:59:50.900Z,992.45
2023-03-28T01:00:50.877Z,992.47
2023-03-28T01:01:50.940Z,992.49
2023-03-28T01:02:51.159Z,992.50
2023-03-28T01:03:50.918Z,992.49
2023-03-28T01:04:50.843Z,992.48
2023-03-28T01:05:50.818Z,992.49
2023-03-28T01:06:51.018Z,992.48
2023-03-28T01:07:50.800Z,992.48
2023-03-28T01:08:50.784Z,992.49
2023-03-28T01:09:50.778Z,992.50
2023-03-28T01:10:50.762Z,992.50
2023-03-28T01:11:50.762Z,992.50
2023-03-28T01:12:50.786Z,992.53
2023-03-28T01:13:50.759Z,992.55
2023-03-28T01:14:50.753Z,992.56
2023-03-28T01:15:50.746Z,992.56
2023-03-28T01:16:50.704Z,992.57
2023-03-28T01:17:50.763Z,992.54
2023-03-28T01:18:50.718Z,992.53
2023-03-28T01:19:50.693Z,992.52
2023-03-28T01:20:50.669Z,992.52
2023-03-28T01:21:50.660Z,992.53
2023-03-28T01:22:57.173Z,992.52
2023-03-28T01:23:50.641Z,992.53
2023-03-28T01:24:50.672Z,992.54
2023-03-28T01:25:50.628Z,992.54
2023-03-28T01:26:50.612Z,992.55
2023-03-28T01:27:50.608Z,992.56
2023-03-28T01:28:50.590Z,992.56
2023-03-28T01:29:50.602Z,992.59
2023-03-28T01:30:50.606Z,992.60
2023-03-28T01:31:50.599Z,992.58
2023-03-28T01:32:50.559Z,992.58
2023-03-28T01:33:50.532Z,992.60
2023-03-28T01:34:50.532Z,992.61
2023-03-28T01:35:50.545Z,992.61
2023-03-28T01:36:50.531Z,992.60
2023-03-28T01:37:50.494Z,992.61
2023-03-28T01:38:50.494Z,992.60
2023-03-28T01:39:50.502Z,992.59
2023-03-28T01:40:50.498Z,992.60
2023-03-28T01:41:50.503Z,992.60
2023-03-28T01:42:50.455Z,992.60
2023-03-28T01:43:50.434Z,992.61
2023-03-28T01:44:50.459Z,992.60
2023-03-28T01:45:50.446Z,992.60
2023-03-28T01:46:50.409Z,992.60
2023-03-28T01:47:50.467Z,992.60
2023-03-28T01:48:50.387Z,992.61
2023-03-28T01:49:50.373Z,992.62
2023-03-28T01:50:50.366Z,992.65
2023-03-28T01:51:50.373Z,992.63
2023-03-28T01:52:50.366Z,992.63
2023-03-28T01:53:50.383Z,992.63
2023-03-28T01:54:50.356Z,992.63
2023-03-28T01:55:50.349Z,992.62
2023-03-28T01:56:50.419Z,992.63
2023-03-28T01:57:50.356Z,992.61
2023-03-28T01:58:50.324Z,992.60
2023-03-28T01:59:50.314Z,992.60
2023-03-28T02:00:50.317Z,992.60
2023-03-28T02:01:50.310Z,992.61
2023-03-28T02:02:50.312Z,992.62
2023-03-28T02:03:50.295Z,992.61
2023-03-28T02:04:50.228Z,992.60
2023-03-28T02:05:50.248Z,992.59
2023-03-28T02:06:50.242Z,992.58
2023-03-28T02:07:50.230Z,992.60
2023-03-28T02:08:50.182Z,992.61
2023-03-28T02:09:50.203Z,992.62
2023-03-28T02:10:50.183Z,992.61
2023-03-28T02:11:50.183Z,992.60
2023-03-28T02:12:50.170Z,992.59
2023-03-28T02:13:50.162Z,992.59
2023-03-28T02:14:50.149Z,992.59
2023-03-28T02:15:50.169Z,992.61
2023-03-28T02:16:50.260Z,992.61
2023-03-28T02:17:50.153Z,992.61
2023-03-28T02:18:50.122Z,992.59
2023-03-28T02:19:50.107Z,992.60
2023-03-28T02:20:50.131Z,992.59
2023-03-28T02:21:50.088Z,992.59
2023-03-28T02:22:50.070Z,992.60
2023-03-28T02:23:50.073Z,992.61
2023-03-28T02:24:50.069Z,992.61
2023-03-28T02:25:50.092Z,992.61
2023-03-28T02:26:50.335Z,992.57
2023-03-28T02:27:50.045Z,992.57
2023-03-28T02:28:50.030Z,992.59
2023-03-28T02:29:50.009Z,992.62
2023-03-28T02:30:50.011Z,992.62
2023-03-28T02:31:50.032Z,992.63
2023-03-28T02:32:50.067Z,992.65
2023-03-28T02:33:49.969Z,992.65
2023-03-28T02:34:49.955Z,992.65
2023-03-28T02:35:50.045Z,992.65
2023-03-28T02:36:49.946Z,992.63
2023-03-28T02:37:49.933Z,992.63
2023-03-28T02:38:49.955Z,992.61
2023-03-28T02:39:49.910Z,992.61
2023-03-28T02:40:49.923Z,992.59
2023-03-28T02:41:49.914Z,992.61
2023-03-28T02:42:49.879Z,992.62
2023-03-28T02:43:49.874Z,992.61
2023-03-28T02:44:49.898Z,992.61
2023-03-28T02:45:49.884Z,992.62
2023-03-28T02:46:49.866Z,992.63
2023-03-28T02:47:49.909Z,992.62
2023-03-28T02:48:49.829Z,992.60
2023-03-28T02:49:50.745Z,992.61
2023-03-28T02:50:49.837Z,992.58
2023-03-28T02:51:49.792Z,992.57
2023-03-28T02:52:49.771Z,992.55
2023-03-28T02:53:49.777Z,992.53
2023-03-28T02:54:49.799Z,992.54
2023-03-28T02:55:49.757Z,992.55
2023-03-28T02:56:49.778Z,992.56
2023-03-28T02:57:49.733Z,992.56
2023-03-28T02:58:49.740Z,992.63
2023-03-28T02:59:49.753Z,992.63
2023-03-28T03:00:49.721Z,992.60
2023-03-28T03:01:49.733Z,992.60
2023-03-28T03:02:49.741Z,992.63
2023-03-28T03:03:49.740Z,992.62
2023-03-28T03:04:49.666Z,992.62
2023-03-28T03:05:49.695Z,992.58
2023-03-28T03:06:49.655Z,992.57
2023-03-28T03:07:49.652Z,992.55
2023-03-28T03:08:49.648Z,992.57
2023-03-28T03:09:49.619Z,992.58
2023-03-28T03:10:49.623Z,992.57
2023-03-28T03:11:49.990Z,992.54
2023-03-28T03:12:49.607Z,992.56
2023-03-28T03:13:49.593Z,992.55
2023-03-28T03:14:49.586Z,992.61
2023-03-28T03:15:49.613Z,992.65
2023-03-28T03:16:49.559Z,992.66
2023-03-28T03:17:49.647Z,992.65
2023-03-28T03:18:49.575Z,992.67
2023-03-28T03:19:49.544Z,992.68
2023-03-28T03:20:49.539Z,992.69
2023-03-28T03:21:49.490Z,992.70
2023-03-28T03:22:49.558Z,992.71
2023-03-28T03:23:49.489Z,992.70
2023-03-28T03:24:49.485Z,992.71
2023-03-28T03:25:49.477Z,992.70
2023-03-28T03:26:49.462Z,992.67
2023-03-28T03:27:49.437Z,992.66
2023-03-28T03:28:49.467Z,992.69
2023-03-28T03:29:49.439Z,992.71
2023-03-28T03:30:49.432Z,992.71
2023-03-28T03:31:49.496Z,992.72
2023-03-28T03:32:49.430Z,992.73
2023-03-28T03:33:49.390Z,992.76
2023-03-28T03:34:49.414Z,992.76
2023-03-28T03:35:49.397Z,992.73
2023-03-28T03:36:49.370Z,992.70
2023-03-28T03:37:49.341Z,992.70
2023-03-28T03:38:49.340Z,992.72
2023-03-28T03:39:49.325Z,992.76
2023-03-28T03:40:49.358Z,992.76
2023-03-28T03:41:49.310Z,992.77
2023-03-28T03:42:49.290Z,992.80
2023-03-28T03:43:49.278Z,992.82
2023-03-28T03:44:49.300Z,992.82
2023-03-28T03:45:49.330Z,992.83
2023-03-28T03:46:49.349Z,992.85
2023-03-28T03:47:49.354Z,992.84
2023-03-28T03:48:50.310Z,992.85
2023-03-28T03:49:49.225Z,992.86
2023-03-28T03:50:49.255Z,992.85
2023-03-28T03:51:49.244Z,992.85
2023-03-28T03:52:49.203Z,992.87
2023-03-28T03:53:49.185Z,992.87
2023-03-28T03:54:49.197Z,992.87
2023-03-28T03:55:49.185Z,992.88
2023-03-28T03:56:49.175Z,992.87
2023-03-28T03:57:49.170Z,992.87
2023-03-28T03:58:49.145Z,992.88
2023-03-28T03:59:49.147Z,992.87
2023-03-28T04:00:49.131Z,992.88
2023-03-28T04:01:49.133Z,992.88
2023-03-28T04:02:49.145Z,992.89
2023-03-28T04:03:49.159Z,992.90
2023-03-28T04:04:49.072Z,992.91
2023-03-28T04:05:49.065Z,992.92
2023-03-28T04:06:49.077Z,992.92
2023-03-28T04:07:49.048Z,992.93
2023-03-28T04:08:49.088Z,992.91
2023-03-28T04:09:49.035Z,992.92
2023-03-28T04:10:49.024Z,992.91
2023-03-28T04:11:49.053Z,992.92
2023-03-28T04:12:49.018Z,992.93
2023-03-28T04:13:48.993Z,992.94
2023-03-28T04:14:49.025Z,992.97
2023-03-28T04:15:49.065Z,992.99
2023-03-28T04:16:48.962Z,992.97
2023-03-28T04:17:48.984Z,992.94
2023-03-28T04:18:48.946Z,992.94
2023-03-28T04:19:48.914Z,992.93
2023-03-28T04:20:48.934Z,992.92
2023-03-28T04:21:49.023Z,992.92
2023-03-28T04:22:48.895Z,992.93
2023-03-28T04:23:48.905Z,992.94
2023-03-28T04:24:48.892Z,992.96
2023-03-28T04:25:48.924Z,992.98
2023-03-28T04:26:48.865Z,993.00
2023-03-28T04:27:48.873Z,992.99
2023-03-28T04:28:48.857Z,993.02
2023-03-28T04:29:48.830Z,993.04
2023-03-28T04:30:48.839Z,993.08
2023-03-28T04:31:48.888Z,993.05
2023-03-28T04:32:48.861Z,993.05
2023-03-28T04:33:48.785Z,993.05
2023-03-28T04:34:48.796Z,993.05
2023-03-28T04:35:48.833Z,993.07
2023-03-28T04:36:48.781Z,993.09
2023-03-28T04:37:48.796Z,993.11
2023-03-28T04:38:48.762Z,993.12
2023-03-28T04:39:48.768Z,993.11
2023-03-28T04:40:48.741Z,993.14
2023-03-28T04:41:48.784Z,993.18
2023-03-28T04:42:48.701Z,993.17
2023-03-28T04:43:48.702Z,993.19
2023-03-28T04:44:48.689Z,993.17
2023-03-28T04:45:48.798Z,993.18
2023-03-28T04:46:48.675Z,993.21
2023-03-28T04:47:48.706Z,993.22
2023-03-28T04:48:48.664Z,993.23
2023-03-28T04:49:48.647Z,993.23
2023-03-28T04:50:48.640Z,993.27
2023-03-28T04:51:48.672Z,993.32
2023-03-28T04:52:48.637Z,993.33
2023-03-28T04:53:48.614Z,993.34
2023-03-28T04:54:48.610Z,993.35
2023-03-28T04:55:48.582Z,993.36
2023-03-28T04:56:48.617Z,993.36
2023-03-28T04:57:48.594Z,993.36
2023-03-28T04:58:48.581Z,993.38
2023-03-28T04:59:48.560Z,993.41
2023-03-28T05:00:48.531Z,993.43
2023-03-28T05:01:48.553Z,993.43
2023-03-28T05:02:48.702Z,993.42
2023-03-28T05:03:48.548Z,993.42
2023-03-28T05:04:48.506Z,993.39
2023-03-28T05:05:48.480Z,993.39
2023-03-28T05:06:48.486Z,993.41
2023-03-28T05:07:48.471Z,993.42
2023-03-28T05:08:48.479Z,993.45
2023-03-28T05:09:48.440Z,993.48
2023-03-28T05:10:48.431Z,993.52
2023-03-28T05:11:48.405Z,993.55
2023-03-28T05:12:48.413Z,993.59
2023-03-28T05:13:48.409Z,993.60
2023-03-28T05:14:48.422Z,993.61
2023-03-28T05:15:48.398Z,993.62
2023-03-28T05:16:48.453Z,993.63
2023-03-28T05:17:48.383Z,993.65
2023-03-28T05:18:48.372Z,993.62
2023-03-28T05:19:48.677Z,993.63
2023-03-28T05:20:48.330Z,993.63
2023-03-28T05:21:48.319Z,993.66
2023-03-28T05:22:48.310Z,993.71
2023-03-28T05:23:51.354Z,993.68
2023-03-28T05:24:48.285Z,993.73
2023-03-28T05:25:48.286Z,993.71
2023-03-28T05:26:48.264Z,993.73
2023-03-28T05:27:48.261Z,993.76
2023-03-28T05:28:48.253Z,993.77
2023-03-28T05:29:48.286Z,993.81
2023-03-28T05:30:48.238Z,993.82
2023-03-28T05:31:48.282Z,993.86
2023-03-28T05:32:48.254Z,993.88
2023-03-28T05:33:48.195Z,993.92
2023-03-28T05:34:48.206Z,993.92
2023-03-28T05:35:48.241Z,993.93
2023-03-28T05:36:48.172Z,993.96
2023-03-28T05:37:48.152Z,993.97
2023-03-28T05:38:48.149Z,993.98
2023-03-28T05:39:48.163Z,993.98
2023-03-28T05:40:48.166Z,994.00
2023-03-28T05:41:48.173Z,994.01
2023-03-28T05:42:48.138Z,994.04
2023-03-28T05:43:48.115Z,994.04
2023-03-28T05:44:48.101Z,994.06
2023-03-28T05:45:48.120Z,994.09
2023-03-28T05:46:48.081Z,994.07
2023-03-28T05:47:48.130Z,994.10
2023-03-28T05:48:49.679Z,994.11
2023-03-28T05:49:48.036Z,994.12
2023-03-28T05:50:48.041Z,994.12
2023-03-28T05:51:48.031Z,994.11
2023-03-28T05:52:48.030Z,994.13
2023-03-28T05:53:48.038Z,994.21
2023-03-28T05:54:50.552Z,994.16
2023-03-28T05:55:48.000Z,994.20
2023-03-28T05:56:48.025Z,994.25
2023-03-28T05:57:47.976Z,994.24
2023-03-28T05:58:47.971Z,994.23
2023-03-28T05:59:47.982Z,994.27
2023-03-28T06:00:47.963Z,994.26
2023-03-28T06:01:47.927Z,994.29
2023-03-28T06:02:48.000Z,994.28
2023-03-28T06:03:47.935Z,994.33
2023-03-28T06:04:47.965Z,994.36
2023-03-28T06:05:47.892Z,994.36
2023-03-28T06:06:47.879Z,994.38
2023-03-28T06:07:48.193Z,994.44
2023-03-28T06:08:47.874Z,994.42
2023-03-28T06:09:47.857Z,994.43
2023-03-28T06:10:47.849Z,994.47
2023-03-28T06:11:47.848Z,994.48
2023-03-28T06:12:47.826Z,994.56
2023-03-28T06:13:47.821Z,994.50
2023-03-28T06:14:47.830Z,994.49
2023-03-28T06:15:47.799Z,994.51
2023-03-28T06:16:47.837Z,994.54
2023-03-28T06:17:47.785Z,994.56
2023-03-28T06:18:47.813Z,994.58
2023-03-28T06:19:47.779Z,994.55
2023-03-28T06:20:47.758Z,994.56
2023-03-28T06:21:47.748Z,994.56
2023-03-28T06:22:47.742Z,994.57
2023-03-28T06:23:47.718Z,994.57
2023-03-28T06:24:48.174Z,994.67
2023-03-28T06:25:47.708Z,994.55
2023-03-28T06:26:47.692Z,994.60
2023-03-28T06:27:47.664Z,994.58
2023-03-28T06:28:47.668Z,994.58
2023-03-28T06:29:47.645Z,994.64
2023-03-28T06:30:47.688Z,994.58
2023-03-28T06:31:47.683Z,994.61
2023-03-28T06:32:47.655Z,994.62
2023-03-28T06:33:47.638Z,994.68
2023-03-28T06:34:47.618Z,994.63
2023-03-28T06:35:47.636Z,994.62
2023-03-28T06:36:47.647Z,994.62
2023-03-28T06:37:47.595Z,994.65
2023-03-28T06:38:47.696Z,994.65
2023-03-28T06:39:47.574Z,994.69
2023-03-28T06:40:47.551Z,994.72
2023-03-28T06:41:47.534Z,994.72
2023-03-28T06:42:47.563Z,994.74
2023-03-28T06:43:47.525Z,994.70
2023-03-28T06:44:47.504Z,994.71
2023-03-28T06:45:47.548Z,994.74
2023-03-28T06:46:47.592Z,994.78
2023-03-28T06:47:47.528Z,994.78
2023-03-28T06:48:47.492Z,994.75
2023-03-28T06:49:47.476Z,994.78
2023-03-28T06:50:47.461Z,994.78
2023-03-28T06:51:47.465Z,994.79
2023-03-28T06:52:47.483Z,994.81
2023-03-28T06:53:47.433Z,994.80
2023-03-28T06:54:48.552Z,994.82
2023-03-28T06:55:47.404Z,994.82
2023-03-28T06:56:47.519Z,994.84
2023-03-28T06:57:47.403Z,994.85
2023-03-28T06:58:47.402Z,994.85
2023-03-28T06:59:47.394Z,994.87
2023-03-28T07:00:47.485Z,994.88
2023-03-28T07:01:47.367Z,994.90
2023-03-28T07:02:47.396Z,994.91
2023-03-28T07:03:49.922Z,994.92
2023-03-28T07:04:47.319Z,994.92
2023-03-28T07:05:47.321Z,994.91
2023-03-28T07:06:47.308Z,994.91
2023-03-28T07:07:47.302Z,994.94
2023-03-28T07:08:47.315Z,994.94
2023-03-28T07:09:47.336Z,994.92
2023-03-28T07:10:47.292Z,994.95
2023-03-28T07:11:47.267Z,994.96
2023-03-28T07:12:47.264Z,994.94
2023-03-28T07:13:47.245Z,994.96
2023-03-28T07:14:47.246Z,994.96
2023-03-28T07:15:47.223Z,994.95
2023-03-28T07:16:47.255Z,994.97
2023-03-28T07:17:47.236Z,994.98
2023-03-28T07:18:47.191Z,995.00
2023-03-28T07:19:47.186Z,995.00
2023-03-28T07:20:51.929Z,994.99
2023-03-28T07:21:47.169Z,995.02
2023-03-28T07:22:47.162Z,995.03
2023-03-28T07:23:47.183Z,995.04
2023-03-28T07:24:47.173Z,995.08
2023-03-28T07:25:47.135Z,995.06
2023-03-28T07:26:47.114Z,995.10
2023-03-28T07:27:47.113Z,995.15
2023-03-28T07:28:47.116Z,995.17
2023-03-28T07:29:47.102Z,995.15
2023-03-28T07:30:47.096Z,995.09
2023-03-28T07:31:47.147Z,995.10
2023-03-28T07:32:55.732Z,995.11
2023-03-28T07:33:47.082Z,995.12
2023-03-28T07:34:47.043Z,995.19
2023-03-28T07:35:47.065Z,995.23
2023-03-28T07:36:47.025Z,995.17
2023-03-28T07:37:47.020Z,995.22
2023-03-28T07:38:48.990Z,995.24
2023-03-28T07:39:47.005Z,995.20
2023-03-28T07:40:47.013Z,995.21
2023-03-28T07:41:46.980Z,995.18
2023-03-28T07:42:46.961Z,995.28
2023-03-28T07:43:46.955Z,995.22
2023-03-28T07:44:46.944Z,995.18
2023-03-28T07:45:46.991Z,995.23
2023-03-28T07:46:46.937Z,995.24
2023-03-28T07:47:46.934Z,995.27
2023-03-28T07:48:46.923Z,995.26
2023-03-28T07:49:46.900Z,995.25
2023-03-28T07:50:46.876Z,995.44
2023-03-28T07:51:46.911Z,995.26
2023-03-28T07:52:46.857Z,995.30
2023-03-28T07:53:46.866Z,995.25
2023-03-28T07:54:46.847Z,995.29
2023-03-28T07:55:54.275Z,995.39
2023-03-28T07:56:46.865Z,995.34
2023-03-28T07:57:46.835Z,995.34
2023-03-28T07:58:46.828Z,995.38
2023-03-28T07:59:46.808Z,995.34
2023-03-28T08:00:46.774Z,995.37
2023-03-28T08:01:46.784Z,995.38
2023-03-28T08:02:46.912Z,995.39
2023-03-28T08:03:46.848Z,995.47
2023-03-28T08:04:46.755Z,995.44
2023-03-28T08:05:46.778Z,995.44
2023-03-28T08:06:46.707Z,995.43
2023-03-28T08:07:46.738Z,995.45
2023-03-28T08:08:46.717Z,995.53
2023-03-28T08:09:46.699Z,995.46
2023-03-28T08:10:46.697Z,995.50
2023-03-28T08:11:46.701Z,995.51
2023-03-28T08:12:46.660Z,995.55
2023-03-28T08:13:46.686Z,995.57
2023-03-28T08:14:46.644Z,995.57
2023-03-28T08:15:46.703Z,995.50
2023-03-28T08:16:46.624Z,995.54
2023-03-28T08:17:46.678Z,995.54
2023-03-28T08:18:50.475Z,995.45
2023-03-28T08:19:46.622Z,995.49
2023-03-28T08:20:46.596Z,995.45
2023-03-28T08:21:46.597Z,995.46
2023-03-28T08:22:46.600Z,995.62
2023-03-28T08:23:46.556Z,995.49
2023-03-28T08:24:46.538Z,995.48
2023-03-28T08:25:46.529Z,995.52
2023-03-28T08:26:48.600Z,995.48
2023-03-28T08:27:46.549Z,995.49
2023-03-28T08:28:46.503Z,995.49
2023-03-28T08:29:46.494Z,995.49
2023-03-28T08:30:46.497Z,995.55
2023-03-28T08:31:46.524Z,995.53
2023-03-28T08:32:48.785Z,995.56
2023-03-28T08:33:46.786Z,995.54
2023-03-28T08:34:46.452Z,995.60
2023-03-28T08:35:46.464Z,995.54
2023-03-28T08:36:46.433Z,995.53
2023-03-28T08:37:46.436Z,995.58
2023-03-28T08:38:46.505Z,995.54
2023-03-28T08:39:46.442Z,995.52
2023-03-28T08:40:46.379Z,995.59
2023-03-28T08:41:46.424Z,995.56
2023-03-28T08:42:46.369Z,995.62
2023-03-28T08:43:46.354Z,995.59
2023-03-28T08:44:48.435Z,995.57
2023-03-28T08:45:46.366Z,995.59
2023-03-28T08:46:46.355Z,995.54
2023-03-28T08:47:46.350Z,995.55
2023-03-28T08:48:46.320Z,995.54
2023-03-28T08:49:46.304Z,995.66
2023-03-28T08:50:46.334Z,995.56
2023-03-28T08:51:46.291Z,995.58
2023-03-28T08:52:46.262Z,995.52
2023-03-28T08:53:46.262Z,995.53
2023-03-28T08:54:46.254Z,995.55
2023-03-28T08:55:46.240Z,995.58
2023-03-28T08:56:46.338Z,995.60
2023-03-28T08:57:46.224Z,995.57
2023-03-28T08:58:46.216Z,995.57
2023-03-28T08:59:46.225Z,995.59
2023-03-28T09:00:46.238Z,995.57
2023-03-28T09:01:46.301Z,995.62
2023-03-28T09:02:46.268Z,995.55
2023-03-28T09:03:46.242Z,995.56
2023-03-28T09:04:46.156Z,995.63
2023-03-28T09:05:46.150Z,995.63
2023-03-28T09:06:46.157Z,995.62
2023-03-28T09:07:46.113Z,995.68
2023-03-28T09:08:46.110Z,995.69
2023-03-28T09:09:46.109Z,995.71
2023-03-28T09:10:46.093Z,995.71
2023-03-28T09:11:46.121Z,995.71
2023-03-28T09:12:46.081Z,995.69
2023-03-28T09:13:46.077Z,995.67
2023-03-28T09:14:46.064Z,995.70
2023-03-28T09:15:46.052Z,995.64
2023-03-28T09:16:46.043Z,995.68
2023-03-28T09:17:46.088Z,995.73
2023-03-28T09:18:46.016Z,995.68
2023-03-28T09:19:48.683Z,995.67
2023-03-28T09:20:45.994Z,995.66
2023-03-28T09:21:45.983Z,995.66
2023-03-28T09:22:46.017Z,995.64
2023-03-28T09:23:45.960Z,995.65
2023-03-28T09:24:45.959Z,995.62
2023-03-28T09:25:45.978Z,995.64
2023-03-28T09:26:45.929Z,995.71
2023-03-28T09:27:45.927Z,995.71
2023-03-28T09:28:45.946Z,995.68
2023-03-28T09:29:45.899Z,995.64
2023-03-28T09:30:45.902Z,995.57
2023-03-28T09:31:45.975Z,995.63
2023-03-28T09:32:45.933Z,995.63
2023-03-28T09:33:45.902Z,995.58
2023-03-28T09:34:45.881Z,995.59
2023-03-28T09:35:46.069Z,995.58
2023-03-28T09:36:49.908Z,995.59
2023-03-28T09:37:45.831Z,995.58
2023-03-28T09:38:45.829Z,995.58
2023-03-28T09:39:45.856Z,995.55
2023-03-28T09:40:45.797Z,995.56
2023-03-28T09:41:45.791Z,995.58
2023-03-28T09:42:45.806Z,995.56
2023-03-28T09:43:45.780Z,995.61
2023-03-28T09:44:54.306Z,995.56
2023-03-28T09:45:45.799Z,995.55
2023-03-28T09:46:45.726Z,995.61
2023-03-28T09:47:45.801Z,995.58
2023-03-28T09:48:45.809Z,995.57
2023-03-28T09:49:45.726Z,995.66
2023-03-28T09:50:45.717Z,995.65
2023-03-28T09:51:45.681Z,995.68
2023-03-28T09:52:45.684Z,995.64
2023-03-28T09:53:45.682Z,995.66
2023-03-28T09:54:45.666Z,995.61
2023-03-28T09:55:54.635Z,995.68
2023-03-28T09:56:45.674Z,995.64
2023-03-28T09:57:45.618Z,995.64
2023-03-28T09:58:45.601Z,995.69
2023-03-28T09:59:45.606Z,995.67
2023-03-28T10:00:45.684Z,995.68
2023-03-28T10:01:45.731Z,995.65
2023-03-28T10:02:45.628Z,995.64
2023-03-28T10:03:45.577Z,995.65
2023-03-28T10:04:45.595Z,995.67
2023-03-28T10:05:45.602Z,995.68
2023-03-28T10:06:45.537Z,995.69
2023-03-28T10:07:45.588Z,995.62
2023-03-28T10:08:45.505Z,995.65
2023-03-28T10:09:45.507Z,995.69
2023-03-28T10:10:45.496Z,995.70
2023-03-28T10:11:45.513Z,995.68
2023-03-28T10:12:45.462Z,995.68
2023-03-28T10:13:45.499Z,995.68
2023-03-28T10:14:45.454Z,995.69
2023-03-28T10:15:45.475Z,995.68
2023-03-28T10:16:45.448Z,995.72
2023-03-28T10:17:45.470Z,995.75
2023-03-28T10:18:45.425Z,995.64
2023-03-28T10:19:45.464Z,995.66
2023-03-28T10:20:45.404Z,995.68
2023-03-28T10:21:45.393Z,995.66
2023-03-28T10:22:45.380Z,995.63
2023-03-28T10:23:45.367Z,995.62
2023-03-28T10:24:45.357Z,995.61
2023-03-28T10:25:45.394Z,995.62
2023-03-28T10:26:45.333Z,995.65
2023-03-28T10:27:45.328Z,995.73
2023-03-28T10:28:45.318Z,995.61
2023-03-28T10:29:45.357Z,995.62
2023-03-28T10:30:45.320Z,995.57
2023-03-28T10:31:45.368Z,995.58
2023-03-28T10:32:45.316Z,995.55
2023-03-28T10:33:45.268Z,995.54
2023-03-28T10:34:45.242Z,995.56
2023-03-28T10:35:45.319Z,995.54
2023-03-28T10:36:45.264Z,995.59
2023-03-28T10:37:45.219Z,995.55
2023-03-28T10:38:45.214Z,995.52
2023-03-28T10:39:45.215Z,995.43
2023-03-28T10:40:45.247Z,995.41
2023-03-28T10:41:45.214Z,995.41
2023-03-28T10:42:45.187Z,995.40
2023-03-28T10:43:45.165Z,995.39
2023-03-28T10:44:45.160Z,995.39
2023-03-28T10:45:45.179Z,995.40
2023-03-28T10:46:45.156Z,995.41
2023-03-28T10:47:45.151Z,995.43
2023-03-28T10:48:45.114Z,995.43
2023-03-28T10:49:45.096Z,995.41
2023-03-28T10:50:45.116Z,995.40
2023-03-28T10:51:45.161Z,995.41
2023-03-28T10:52:45.064Z,995.43
2023-03-28T10:53:45.075Z,995.42
2023-03-28T10:54:45.053Z,995.36
2023-03-28T10:55:45.072Z,995.42
2023-03-28T10:56:45.055Z,995.39
2023-03-28T10:57:45.040Z,995.41
2023-03-28T10:58:45.032Z,995.43
2023-03-28T10:59:45.008Z,995.38
2023-03-28T11:00:45.011Z,995.39
2023-03-28T11:01:45.060Z,995.37
2023-03-28T11:02:45.110Z,995.36
2023-03-28T11:03:45.042Z,995.43
2023-03-28T11:04:44.957Z,995.37
2023-03-28T11:05:52.148Z,995.35
2023-03-28T11:06:44.928Z,995.30
2023-03-28T11:07:44.936Z,995.31
2023-03-28T11:08:44.960Z,995.33
2023-03-28T11:09:44.896Z,995.27
2023-03-28T11:10:44.899Z,995.29
2023-03-28T11:11:44.886Z,995.26
2023-03-28T11:12:54.267Z,995.27
2023-03-28T11:13:44.891Z,995.22
2023-03-28T11:14:44.882Z,995.21
2023-03-28T11:15:45.013Z,995.23
2023-03-28T11:16:44.861Z,995.17
2023-03-28T11:17:44.867Z,995.21
2023-03-28T11:18:44.823Z,995.18
2023-03-28T11:19:44.839Z,995.14
2023-03-28T11:20:44.795Z,995.12
2023-03-28T11:21:44.809Z,995.18
2023-03-28T11:22:55.261Z,995.11
2023-03-28T11:23:44.752Z,995.09
2023-03-28T11:24:44.768Z,995.07
2023-03-28T11:25:44.756Z,995.07
2023-03-28T11:26:44.736Z,995.06
2023-03-28T11:27:44.723Z,995.00
2023-03-28T11:28:46.514Z,995.03
2023-03-28T11:29:44.710Z,995.01
2023-03-28T11:30:44.741Z,995.02
2023-03-28T11:31:44.708Z,995.11
2023-03-28T11:32:44.768Z,995.08
2023-03-28T11:33:44.656Z,995.04
2023-03-28T11:34:44.656Z,995.01
2023-03-28T11:35:44.664Z,994.98
2023-03-28T11:36:44.676Z,994.98
2023-03-28T11:37:44.647Z,994.99
2023-03-28T11:38:44.629Z,994.94
2023-03-28T11:39:44.620Z,994.96
2023-03-28T11:40:44.613Z,994.96
2023-03-28T11:41:44.583Z,994.91
2023-03-28T11:42:44.591Z,994.93
2023-03-28T11:43:44.569Z,994.87
2023-03-28T11:44:44.565Z,994.90
2023-03-28T11:45:51.114Z,994.92
2023-03-28T11:46:44.646Z,994.89
2023-03-28T11:47:44.532Z,994.90
2023-03-28T11:48:44.570Z,994.89
2023-03-28T11:49:44.503Z,994.86
2023-03-28T11:50:44.484Z,994.86
2023-03-28T11:51:44.471Z,994.88
2023-03-28T11:52:44.506Z,994.89
2023-03-28T11:53:44.469Z,994.84
2023-03-28T11:54:44.477Z,994.87
2023-03-28T11:55:44.441Z,994.86
2023-03-28T11:56:44.464Z,994.87
2023-03-28T11:57:44.446Z,994.89
2023-03-28T11:58:44.438Z,994.90
2023-03-28T11:59:44.412Z,994.89
2023-03-28T12:00:44.426Z,994.87
2023-03-28T12:01:44.381Z,994.87
2023-03-28T12:02:44.516Z,994.88
2023-03-28T12:03:44.442Z,994.89
2023-03-28T12:04:44.359Z,994.87
2023-03-28T12:05:44.353Z,994.87
2023-03-28T12:06:55.932Z,994.85
2023-03-28T12:07:44.364Z,994.83
2023-03-28T12:08:44.300Z,994.83
2023-03-28T12:09:44.291Z,994.81
2023-03-28T12:10:44.294Z,994.79
2023-03-28T12:11:44.324Z,994.78
2023-03-28T12:12:44.266Z,994.78
2023-03-28T12:13:46.602Z,994.80
2023-03-28T12:14:44.250Z,994.76
2023-03-28T12:15:44.244Z,994.76
2023-03-28T12:16:44.288Z,994.77
2023-03-28T12:17:44.244Z,994.73
2023-03-28T12:18:44.262Z,994.70
2023-03-28T12:19:44.216Z,994.65
2023-03-28T12:20:44.195Z,994.65
2023-03-28T12:21:44.187Z,994.62
2023-03-28T12:22:44.177Z,994.57
2023-03-28T12:23:44.174Z,994.54
2023-03-28T12:24:44.182Z,994.59
2023-03-28T12:25:44.124Z,994.54
2023-03-28T12:26:44.125Z,994.52
2023-03-28T12:27:44.130Z,994.56
2023-03-28T12:28:44.100Z,994.51